Time;durP1;ratioP1;P1;durP2;ratioP2;P2;SDS_P1;SDS_P2;PMS_P1;PMS_P2;Temp;Humidity;BMP_temperature;BMP_pressure;BME280_temperature;BME280_humidity;BME280_pressure;Samples;Min_cycle;Max_cycle;Signal;HPM_P1;HPM_P2
2023/03/24 00:02:02;;;;;;;39.17;37.00;;;8.10;99.90;;;;;;5251433;28;20023;-69
2023/03/24 00:04:34;;;;;;;42.75;40.38;;;8.10;99.90;;;;;;5251418;28;20103;-69
2023/03/24 00:07:05;;;;;;;41.92;39.67;;;8.50;99.90;;;;;;5251395;28;20016;-69
2023/03/24 00:09:36;;;;;;;40.05;37.75;;;8.60;99.90;;;;;;5251357;28;20043;-69
2023/03/24 00:12:12;;;;;;;45.17;42.70;;;8.50;99.90;;;;;;5251225;28;20020;-70
2023/03/24 00:14:45;;;;;;;40.47;38.30;;;8.20;99.90;;;;;;5251145;28;20021;-69
2023/03/24 00:17:16;;;;;;;39.75;37.60;;;8.40;99.90;;;;;;5251159;28;20013;-69
2023/03/24 00:19:49;;;;;;;43.08;40.78;;;8.30;99.90;;;;;;5251097;28;20478;-69
2023/03/24 00:22:20;;;;;;;42.65;40.28;;;8.40;99.90;;;;;;5250845;28;20035;-69
2023/03/24 00:24:50;;;;;;;42.38;39.85;;;8.30;99.90;;;;;;5232899;28;20036;-69
2023/03/24 00:27:21;;;;;;;41.78;39.38;;;7.90;99.90;;;;;;5248292;28;20088;-65
2023/03/24 00:29:52;;;;;;;40.67;38.35;;;8.00;99.90;;;;;;5240332;28;20059;-65
2023/03/24 00:32:23;;;;;;;44.50;41.95;;;8.00;99.90;;;;;;5250640;28;20024;-67
2023/03/24 00:34:54;;;;;;;44.00;41.60;;;8.10;99.90;;;;;;5250768;28;20529;-66
2023/03/24 00:37:25;;;;;;;43.58;41.17;;;8.40;99.90;;;;;;5250658;28;20357;-69
2023/03/24 00:39:56;;;;;;;42.35;39.95;;;8.30;99.90;;;;;;5250629;28;20056;-69
2023/03/24 00:42:26;;;;;;;42.97;40.58;;;8.10;99.90;;;;;;5250557;28;20056;-69
2023/03/24 00:44:57;;;;;;;46.67;44.08;;;8.20;99.90;;;;;;5250526;28;20039;-69
2023/03/24 00:47:29;;;;;;;46.47;43.70;;;8.20;99.90;;;;;;5250558;28;20456;-65
2023/03/24 00:50:00;;;;;;;44.00;41.60;;;8.00;99.90;;;;;;5250469;28;20472;-69
2023/03/24 00:52:32;;;;;;;41.25;38.95;;;8.10;99.90;;;;;;5250349;28;20106;-69
2023/03/24 00:55:05;;;;;;;44.45;42.05;;;8.10;99.90;;;;;;5250184;28;20024;-69
2023/03/24 00:57:35;;;;;;;44.42;41.92;;;7.90;99.90;;;;;;5249118;28;20024;-65
2023/03/24 01:00:17;;;;;;;42.50;40.20;;;7.80;99.90;;;;;;5242646;28;20047;-69
2023/03/24 01:02:53;;;;;;;47.50;44.90;;;7.50;99.90;;;;;;5229413;28;20061;-66
2023/03/24 01:05:31;;;;;;;48.58;45.78;;;7.90;99.90;;;;;;5229299;28;20481;-65
2023/03/24 01:08:06;;;;;;;45.70;43.20;;;7.90;99.90;;;;;;5229335;28;20036;-69
2023/03/24 01:10:52;;;;;;;47.00;44.47;;;7.70;99.90;;;;;;5229237;28;20019;-69
2023/03/24 01:13:26;;;;;;;53.95;50.97;;;7.40;99.90;;;;;;5236768;28;20475;-69
2023/03/24 01:15:57;;;;;;;52.33;49.45;;;7.40;99.90;;;;;;5244731;28;20025;-68
2023/03/24 01:18:28;;;;;;;51.40;48.53;;;7.60;99.90;;;;;;5229117;28;20021;-69
2023/03/24 01:21:00;;;;;;;56.40;53.17;;;7.50;99.90;;;;;;5236868;28;20027;-69
2023/03/24 01:23:31;;;;;;;56.20;52.05;;;7.40;99.90;;;;;;5249600;28;20043;-69
2023/03/24 01:26:06;;;;;;;59.42;56.22;;;7.40;99.90;;;;;;5237069;28;20024;-69
2023/03/24 01:28:39;;;;;;;58.80;55.42;;;7.40;99.90;;;;;;5234631;28;20049;-69
2023/03/24 01:31:11;;;;;;;61.08;57.72;;;7.20;99.90;;;;;;5229736;28;20079;-68
2023/03/24 01:33:41;;;;;;;59.08;55.63;;;7.30;99.90;;;;;;5238300;28;20372;-69
2023/03/24 01:36:12;;;;;;;59.65;56.45;;;7.50;99.90;;;;;;5212966;28;20031;-68
2023/03/24 01:38:43;;;;;;;54.55;51.53;;;7.30;99.90;;;;;;5249372;28;20051;-69
2023/03/24 01:41:14;;;;;;;52.50;49.60;;;7.00;99.90;;;;;;5238918;28;20029;-69
2023/03/24 01:43:45;;;;;;;61.50;58.15;;;7.40;99.90;;;;;;5228633;28;20033;-67
2023/03/24 01:46:20;;;;;;;56.65;53.55;;;7.30;99.90;;;;;;5228699;28;20100;-69
2023/03/24 01:49:03;;;;;;;55.08;52.08;;;7.10;99.90;;;;;;5228422;28;20013;-69
2023/03/24 01:51:42;;;;;;;60.22;56.90;;;7.20;99.90;;;;;;5228884;28;20550;-68
2023/03/24 01:54:21;;;;;;;59.95;56.58;;;6.90;99.90;;;;;;5228343;28;20032;-69
2023/03/24 01:57:05;;;;;;;63.42;59.92;;;7.00;99.90;;;;;;5228164;28;20021;-69
2023/03/24 01:59:40;;;;;;;65.18;61.67;;;7.00;99.90;;;;;;5228452;28;20025;-69
2023/03/24 02:02:12;;;;;;;58.00;54.53;;;6.90;99.90;;;;;;5228228;28;20033;-68
2023/03/24 02:04:49;;;;;;;57.13;54.03;;;6.90;99.90;;;;;;5228227;28;20167;-66
2023/03/24 02:07:38;;;;;;;59.40;56.20;;;7.10;99.90;;;;;;5228349;28;20028;-68
2023/03/24 02:10:15;;;;;;;56.28;53.25;;;7.10;99.90;;;;;;5228260;28;20029;-69
2023/03/24 02:12:46;;;;;;;54.60;51.67;;;6.90;99.90;;;;;;5228202;28;20094;-69
2023/03/24 02:15:18;;;;;;;50.67;47.90;;;7.00;99.90;;;;;;5228308;28;20036;-69
2023/03/24 02:18:17;;;;;;;50.88;48.15;;;6.80;99.90;;;;;;5227781;28;20523;-69
2023/03/24 02:20:48;;;;;;;53.33;50.47;;;7.00;99.90;;;;;;5228090;28;20026;-69
2023/03/24 02:23:56;;;;;;;58.42;55.30;;;6.70;99.90;;;;;;5227939;28;20069;-69
2023/03/24 02:26:38;;;;;;;47.40;44.83;;;6.80;99.90;;;;;;5227955;28;20376;-69
2023/03/24 02:29:53;;;;;;;50.60;47.90;;;6.80;99.90;;;;;;5210052;28;20051;-68
2023/03/24 02:33:01;;;;;;;53.67;50.50;;;7.10;99.90;;;;;;5227891;28;20476;-66
2023/03/24 02:35:58;;;;;;;53.22;50.35;;;7.30;99.90;;;;;;5246791;28;20028;-69
2023/03/24 02:38:38;;;;;;;52.47;49.60;;;7.40;99.90;;;;;;5248337;28;20212;-69
2023/03/24 02:41:09;;;;;;;52.97;50.08;;;7.10;99.90;;;;;;5227491;28;20021;-69
2023/03/24 02:43:57;;;;;;;53.25;50.00;;;7.20;99.90;;;;;;5227506;28;20048;-66
2023/03/24 02:46:40;;;;;;;63.55;60.10;;;6.90;99.90;;;;;;5227494;28;20029;-69
2023/03/24 02:49:23;;;;;;;59.00;55.78;;;7.20;99.90;;;;;;5227600;28;20031;-65
2023/03/24 02:52:10;;;;;;;57.13;53.95;;;7.20;99.90;;;;;;5227402;28;20047;-69
2023/03/24 02:54:53;;;;;;;60.05;56.75;;;7.10;99.90;;;;;;5227142;28;20060;-69
2023/03/24 02:57:47;;;;;;;51.08;48.28;;;7.20;99.90;;;;;;5227287;28;20017;-66
2023/03/24 03:00:33;;;;;;;51.28;48.25;;;6.90;99.90;;;;;;5227180;28;20021;-66
2023/03/24 03:03:22;;;;;;;54.72;51.63;;;6.90;99.90;;;;;;5227113;28;20036;-69
2023/03/24 03:06:21;;;;;;;61.92;58.55;;;6.80;99.90;;;;;;5226963;28;20027;-68
2023/03/24 03:08:54;;;;;;;54.33;51.40;;;6.80;99.90;;;;;;5227175;28;20519;-69
2023/03/24 03:11:25;;;;;;;62.45;58.90;;;6.80;99.90;;;;;;5227073;28;20025;-66
2023/03/24 03:14:04;;;;;;;56.55;53.45;;;7.00;99.90;;;;;;5227007;28;20518;-69
2023/03/24 03:16:42;;;;;;;54.95;51.90;;;6.80;99.90;;;;;;5227003;28;20473;-69
2023/03/24 03:19:29;;;;;;;50.97;48.08;;;6.80;99.90;;;;;;5226796;28;20048;-69
2023/03/24 03:22:03;;;;;;;56.95;53.80;;;6.80;99.90;;;;;;5226816;28;20086;-68
2023/03/24 03:24:42;;;;;;;52.83;49.75;;;6.80;99.90;;;;;;5226766;28;20071;-69
2023/03/24 03:27:26;;;;;;;55.47;52.20;;;6.80;99.90;;;;;;5226383;28;20049;-65
2023/03/24 03:30:03;;;;;;;59.60;56.30;;;6.80;99.90;;;;;;5225872;28;20029;-70
2023/03/24 03:32:38;;;;;;;53.33;50.33;;;6.80;99.90;;;;;;5226769;28;20028;-69
2023/03/24 03:35:15;;;;;;;58.03;54.38;;;6.90;99.90;;;;;;5226515;28;20488;-69
2023/03/24 03:37:56;;;;;;;57.83;54.42;;;6.70;99.90;;;;;;5226430;28;20099;-69
2023/03/24 03:40:35;;;;;;;54.75;51.55;;;7.00;99.90;;;;;;5226549;28;20029;-68
2023/03/24 03:43:06;;;;;;;54.67;51.45;;;7.10;99.90;;;;;;5226386;28;20037;-67
2023/03/24 03:45:37;;;;;;;57.08;53.78;;;7.20;99.90;;;;;;5226327;28;20029;-68
2023/03/24 03:48:08;;;;;;;66.43;62.67;;;7.40;99.90;;;;;;5226341;28;20033;-69
2023/03/24 03:50:38;;;;;;;56.28;53.00;;;7.30;99.90;;;;;;5228893;28;20021;-69
2023/03/24 03:53:12;;;;;;;54.88;51.47;;;7.30;99.90;;;;;;5226245;28;20480;-67
2023/03/24 03:55:44;;;;;;;58.60;54.83;;;7.30;99.90;;;;;;5230472;28;20021;-67
2023/03/24 03:58:15;;;;;;;53.72;50.40;;;7.20;99.90;;;;;;5243102;28;20031;-68
2023/03/24 04:00:46;;;;;;;56.42;52.65;;;7.00;99.90;;;;;;5247001;28;20404;-66
2023/03/24 04:03:26;;;;;;;61.30;57.33;;;7.00;99.90;;;;;;5246905;28;20038;-68
2023/03/24 04:06:13;;;;;;;57.45;53.70;;;7.30;99.90;;;;;;5247061;28;20034;-69
2023/03/24 04:08:44;;;;;;;58.58;54.70;;;7.40;99.90;;;;;;5246920;28;20052;-67
2023/03/24 04:11:21;;;;;;;57.88;54.28;;;7.30;99.90;;;;;;5246910;28;20401;-69
2023/03/24 04:14:14;;;;;;;60.40;56.40;;;7.50;99.90;;;;;;5246889;28;20025;-66
2023/03/24 04:16:51;;;;;;;63.78;59.65;;;7.10;99.90;;;;;;5246825;28;20040;-68
2023/03/24 04:19:50;;;;;;;57.40;53.90;;;7.30;99.90;;;;;;5246881;28;20017;-69
2023/03/24 04:22:54;;;;;;;60.17;56.60;;;7.50;99.90;;;;;;5246995;28;20032;-69
2023/03/24 04:25:48;;;;;;;51.33;48.17;;;7.60;99.90;;;;;;5246755;28;20063;-69
2023/03/24 04:28:32;;;;;;;54.63;51.08;;;7.50;99.90;;;;;;5207137;28;20057;-68
2023/03/24 04:31:13;;;;;;;55.25;51.80;;;7.10;99.90;;;;;;5205549;28;20025;-65
2023/03/24 04:33:52;;;;;;;54.15;50.75;;;7.70;99.90;;;;;;5205325;28;20175;-68
2023/03/24 04:36:41;;;;;;;56.90;53.17;;;7.60;99.90;;;;;;5205499;28;20100;-68
2023/03/24 04:39:16;;;;;;;64.72;60.72;;;7.70;99.90;;;;;;5205385;28;20025;-69
2023/03/24 04:41:47;;;;;;;54.35;50.97;;;7.50;99.90;;;;;;5208883;28;20053;-69
2023/03/24 04:44:20;;;;;;;50.90;47.50;;;7.70;99.90;;;;;;5209283;28;20037;-69
2023/03/24 04:46:55;;;;;;;52.25;48.72;;;7.60;99.90;;;;;;5209320;28;20025;-65
2023/03/24 04:49:26;;;;;;;55.35;51.60;;;7.50;99.90;;;;;;5209165;28;20033;-69
2023/03/24 04:51:57;;;;;;;46.47;43.28;;;7.70;99.90;;;;;;5209243;28;20097;-69
2023/03/24 04:54:28;;;;;;;55.58;51.97;;;7.70;99.90;;;;;;5209217;28;20160;-68
2023/03/24 04:57:00;;;;;;;51.42;47.78;;;7.70;99.90;;;;;;5209039;28;20032;-69
2023/03/24 04:59:33;;;;;;;49.63;46.15;;;7.80;99.90;;;;;;5209126;28;20033;-69
2023/03/24 05:02:04;;;;;;;57.75;53.90;;;7.90;99.90;;;;;;5209577;28;20018;-68
2023/03/24 05:04:35;;;;;;;55.35;51.78;;;7.80;99.90;;;;;;5210173;28;20128;-69
2023/03/24 05:07:06;;;;;;;55.00;51.38;;;7.80;99.90;;;;;;5210193;28;20477;-65
2023/03/24 05:09:37;;;;;;;57.38;53.60;;;7.80;99.90;;;;;;5216633;28;20111;-67
2023/03/24 05:12:08;;;;;;;56.50;52.58;;;7.70;99.90;;;;;;5208802;28;20028;-68
2023/03/24 05:14:39;;;;;;;55.88;52.05;;;7.80;99.90;;;;;;5219091;28;20021;-69
2023/03/24 05:17:09;;;;;;;55.25;51.53;;;7.80;99.90;;;;;;5229343;28;20025;-68
2023/03/24 05:19:40;;;;;;;56.42;52.55;;;7.60;99.90;;;;;;5216038;28;20361;-70
2023/03/24 05:22:11;;;;;;;55.55;51.67;;;7.50;99.90;;;;;;5232588;28;20037;-66
2023/03/24 05:24:42;;;;;;;55.22;51.45;;;7.90;99.90;;;;;;5236365;28;20033;-66
2023/03/24 05:27:13;;;;;;;59.28;55.40;;;8.10;99.90;;;;;;5233176;28;20357;-67
2023/03/24 05:29:50;;;;;;;50.47;47.15;;;8.10;99.90;;;;;;5257683;28;20039;-64
2023/03/24 05:32:20;;;;;;;44.63;41.58;;;8.10;99.90;;;;;;5249118;28;20024;-68
2023/03/24 05:34:51;;;;;;;53.17;49.72;;;7.90;99.90;;;;;;5244618;28;20381;-67
2023/03/24 05:37:22;;;;;;;57.35;53.75;;;7.80;99.90;;;;;;5243166;28;20029;-67
2023/03/24 05:39:53;;;;;;;50.97;47.58;;;8.10;99.90;;;;;;5239299;28;20032;-66
2023/03/24 05:42:24;;;;;;;52.05;48.70;;;8.10;99.90;;;;;;5243218;28;20024;-67
2023/03/24 05:44:55;;;;;;;55.25;51.83;;;8.00;99.90;;;;;;5232653;28;20081;-68
2023/03/24 05:47:26;;;;;;;46.45;43.45;;;8.20;99.90;;;;;;5246209;28;20464;-67
2023/03/24 05:49:57;;;;;;;45.80;42.90;;;8.30;99.90;;;;;;5246660;28;20504;-68
2023/03/24 05:52:28;;;;;;;41.97;39.40;;;8.30;99.90;;;;;;5235680;28;20028;-68
2023/03/24 05:54:59;;;;;;;42.67;40.15;;;8.00;99.90;;;;;;5236024;28;20361;-65
2023/03/24 05:57:30;;;;;;;53.85;50.30;;;8.20;99.90;;;;;;5216829;28;20060;-67
2023/03/24 06:00:06;;;;;;;44.00;41.15;;;8.40;99.90;;;;;;5237157;28;20029;-67
2023/03/24 06:02:38;;;;;;;48.30;45.53;;;8.40;99.90;;;;;;5237280;28;20013;-67
2023/03/24 06:05:10;;;;;;;55.95;51.65;;;8.10;99.90;;;;;;5237891;28;20046;-68
2023/03/24 06:07:41;;;;;;;44.80;42.00;;;8.30;99.90;;;;;;5236525;28;20020;-67
2023/03/24 06:10:13;;;;;;;43.22;40.42;;;8.60;99.90;;;;;;5237382;28;20016;-66
2023/03/24 06:12:45;;;;;;;43.70;41.20;;;8.90;99.90;;;;;;5220552;28;20387;-67
2023/03/24 06:15:16;;;;;;;41.80;39.50;;;8.90;99.90;;;;;;5238455;28;20016;-67
2023/03/24 06:17:48;;;;;;;39.35;37.15;;;9.00;99.90;;;;;;5236921;28;20365;-67
2023/03/24 06:20:20;;;;;;;40.63;38.13;;;8.90;99.90;;;;;;5236045;28;20025;-67
2023/03/24 06:22:53;;;;;;;37.97;35.85;;;8.80;99.90;;;;;;5237010;28;20021;-68
2023/03/24 06:25:26;;;;;;;36.08;33.80;;;8.70;99.90;;;;;;5236818;28;20013;-67
2023/03/24 06:28:02;;;;;;;40.72;38.58;;;8.90;99.90;;;;;;5218728;28;20053;-68
2023/03/24 06:30:33;;;;;;;37.33;35.40;;;8.90;99.90;;;;;;5219037;28;20029;-68
2023/03/24 06:33:04;;;;;;;39.85;37.60;;;8.90;99.90;;;;;;5227565;28;20103;-65
2023/03/24 06:35:35;;;;;;;38.13;36.03;;;8.60;99.90;;;;;;5227386;28;20033;-67
2023/03/24 06:38:06;;;;;;;39.70;37.40;;;8.60;99.90;;;;;;5232280;28;20085;-66
2023/03/24 06:40:37;;;;;;;41.72;39.33;;;9.00;99.90;;;;;;5234126;28;20031;-67
2023/03/24 06:43:08;;;;;;;41.05;38.75;;;8.80;99.90;;;;;;5214843;28;20037;-68
2023/03/24 06:45:39;;;;;;;37.33;35.22;;;9.20;99.90;;;;;;5243660;28;20028;-68
2023/03/24 06:48:10;;;;;;;39.63;37.25;;;9.10;99.90;;;;;;5227169;28;20035;-68
2023/03/24 06:50:41;;;;;;;40.15;37.88;;;8.90;99.90;;;;;;5212133;28;20113;-68
2023/03/24 06:53:12;;;;;;;35.30;33.33;;;9.40;99.90;;;;;;5227043;28;20107;-67
2023/03/24 06:55:42;;;;;;;36.40;34.33;;;9.30;99.90;;;;;;5226656;28;20495;-68
2023/03/24 06:58:14;;;;;;;35.47;33.17;;;9.30;99.90;;;;;;5232521;28;20423;-67
2023/03/24 07:00:45;;;;;;;32.03;30.02;;;9.30;99.90;;;;;;5241124;28;20056;-67
2023/03/24 07:03:16;;;;;;;33.33;31.42;;;9.30;99.90;;;;;;5226922;28;20043;-67
2023/03/24 07:05:47;;;;;;;32.05;30.25;;;9.70;99.90;;;;;;5226914;28;20021;-67
2023/03/24 07:08:18;;;;;;;37.97;35.38;;;9.50;99.90;;;;;;5226949;28;20029;-68
2023/03/24 07:10:49;;;;;;;31.35;29.55;;;9.80;99.90;;;;;;5226769;28;20025;-68
2023/03/24 07:13:20;;;;;;;31.20;29.38;;;10.10;99.90;;;;;;5226834;28;20524;-66
2023/03/24 07:15:51;;;;;;;21.27;20.05;;;9.80;99.90;;;;;;5227676;28;20096;-68
2023/03/24 07:18:22;;;;;;;23.27;21.95;;;10.00;99.90;;;;;;5247862;28;20472;-68
2023/03/24 07:20:53;;;;;;;23.92;22.52;;;10.30;99.90;;;;;;5244374;28;20067;-68
2023/03/24 07:23:24;;;;;;;33.90;30.10;;;10.40;99.90;;;;;;5226554;28;20037;-70
2023/03/24 07:25:55;;;;;;;24.48;23.05;;;10.90;99.90;;;;;;5226759;28;20029;-68
2023/03/24 07:28:26;;;;;;;23.45;22.15;;;10.80;99.90;;;;;;5226550;28;20049;-67
2023/03/24 07:31:00;;;;;;;24.42;22.88;;;10.80;99.90;;;;;;5226830;28;20021;-68
2023/03/24 07:33:31;;;;;;;22.98;21.58;;;9.90;99.90;;;;;;5226456;28;20415;-69
2023/03/24 07:36:04;;;;;;;23.08;21.88;;;10.50;99.90;;;;;;5254440;28;20029;-70
2023/03/24 07:38:35;;;;;;;22.48;21.33;;;10.70;99.90;;;;;;5231306;28;20017;-68
2023/03/24 07:41:06;;;;;;;23.15;21.95;;;11.10;99.90;;;;;;5226643;28;20435;-69
2023/03/24 07:43:37;;;;;;;23.35;22.00;;;11.40;99.90;;;;;;5226320;28;20025;-65
2023/03/24 07:46:07;;;;;;;25.02;23.50;;;11.30;99.90;;;;;;5233950;28;20070;-68
2023/03/24 07:48:38;;;;;;;25.58;24.23;;;11.30;99.90;;;;;;5230664;28;20435;-71
2023/03/24 07:51:09;;;;;;;30.02;28.27;;;11.60;99.90;;;;;;5226395;28;20033;-68
2023/03/24 07:53:40;;;;;;;32.58;30.77;;;11.60;99.90;;;;;;5225893;28;20075;-66
2023/03/24 07:56:11;;;;;;;36.70;34.63;;;11.90;99.90;;;;;;5226325;28;20469;-68
2023/03/24 07:58:42;;;;;;;36.45;34.45;;;12.00;99.90;;;;;;5228038;28;20041;-64
2023/03/24 08:01:13;;;;;;;45.97;43.17;;;12.10;99.90;;;;;;5234990;28;20111;-67
2023/03/24 08:03:43;;;;;;;41.78;39.58;;;12.00;99.90;;;;;;5230664;28;20037;-68
2023/03/24 08:06:14;;;;;;;38.70;36.65;;;12.00;99.90;;;;;;5226272;28;20052;-69
2023/03/24 08:08:45;;;;;;;38.85;36.78;;;11.60;99.90;;;;;;5226045;28;20029;-70
2023/03/24 08:11:16;;;;;;;42.08;39.85;;;12.20;99.90;;;;;;5226213;28;20024;-70
2023/03/24 08:13:47;;;;;;;46.88;44.28;;;12.60;99.90;;;;;;5226004;28;20078;-69
2023/03/24 08:16:18;;;;;;;44.05;41.58;;;13.20;99.90;;;;;;5228982;28;20462;-69
2023/03/24 08:18:49;;;;;;;42.40;40.10;;;13.20;99.90;;;;;;5230156;28;20044;-70
2023/03/24 08:21:20;;;;;;;42.30;39.85;;;13.60;99.90;;;;;;5229971;28;20049;-70
2023/03/24 08:23:51;;;;;;;33.85;32.03;;;13.80;99.90;;;;;;5229983;28;20064;-65
2023/03/24 08:26:25;;;;;;;39.75;37.50;;;12.50;99.90;;;;;;5230138;28;20025;-70
2023/03/24 08:28:56;;;;;;;38.70;36.30;;;13.10;99.90;;;;;;5230062;28;20075;-69
2023/03/24 08:31:34;;;;;;;33.63;31.67;;;13.90;99.90;;;;;;5234986;28;20095;-69
2023/03/24 08:34:05;;;;;;;30.90;29.20;;;14.40;99.90;;;;;;5231896;28;20028;-67
2023/03/24 08:36:36;;;;;;;29.40;27.80;;;13.70;99.90;;;;;;5235974;28;20488;-67
2023/03/24 08:39:08;;;;;;;31.67;29.85;;;13.70;99.90;;;;;;5250481;28;20019;-68
2023/03/24 08:41:39;;;;;;;33.95;31.95;;;13.80;99.90;;;;;;5234606;28;20482;-66
2023/03/24 08:44:10;;;;;;;30.23;28.52;;;14.40;99.90;;;;;;5229544;28;20127;-67
2023/03/24 08:46:41;;;;;;;30.20;28.55;;;14.10;99.90;;;;;;5229749;28;20021;-64
2023/03/24 08:49:12;;;;;;;31.88;30.17;;;13.70;99.90;;;;;;5229832;28;20028;-65
2023/03/24 08:51:43;;;;;;;30.83;29.08;;;13.70;99.90;;;;;;5226565;28;20028;-64
2023/03/24 08:54:14;;;;;;;31.45;29.58;;;13.90;99.90;;;;;;5248422;28;20768;-65
2023/03/24 08:56:45;;;;;;;33.13;31.23;;;13.80;99.90;;;;;;5232945;28;20032;-70
2023/03/24 08:59:16;;;;;;;35.33;33.42;;;13.80;99.90;;;;;;5237675;28;20140;-69
2023/03/24 09:01:47;;;;;;;33.75;31.85;;;13.70;99.90;;;;;;5244695;28;20024;-68
2023/03/24 09:04:17;;;;;;;35.53;33.55;;;13.60;99.90;;;;;;5249732;28;20037;-67
2023/03/24 09:06:48;;;;;;;35.08;33.17;;;13.90;99.90;;;;;;5249854;28;20107;-68
2023/03/24 09:09:19;;;;;;;44.72;42.28;;;13.80;99.90;;;;;;5249602;28;20025;-65
2023/03/24 09:11:50;;;;;;;34.88;32.97;;;14.30;99.90;;;;;;5249785;28;20056;-65
2023/03/24 09:14:21;;;;;;;34.42;32.42;;;14.90;99.90;;;;;;5249854;28;20021;-71
2023/03/24 09:16:52;;;;;;;26.33;24.88;;;15.60;99.90;;;;;;5232515;28;20556;-69
2023/03/24 09:19:23;;;;;;;26.45;24.85;;;15.30;99.90;;;;;;5229123;28;20096;-71
2023/03/24 09:21:53;;;;;;;21.58;20.38;;;15.10;99.90;;;;;;5261477;28;20364;-71
2023/03/24 09:24:25;;;;;;;26.30;24.73;;;15.10;99.90;;;;;;5270578;28;20040;-70
2023/03/24 09:26:55;;;;;;;27.50;26.00;;;15.30;99.90;;;;;;5269030;28;20118;-71
2023/03/24 09:29:26;;;;;;;25.20;23.70;;;15.20;99.90;;;;;;5266876;28;20175;-70
2023/03/24 09:31:57;;;;;;;21.92;20.73;;;15.60;99.90;;;;;;5249455;28;20020;-70
2023/03/24 09:34:29;;;;;;;26.67;25.13;;;15.70;99.90;;;;;;5246557;28;20036;-71
2023/03/24 09:37:00;;;;;;;25.50;23.90;;;15.70;99.90;;;;;;5248626;28;20052;-70
2023/03/24 09:39:31;;;;;;;25.00;23.33;;;16.00;99.90;;;;;;5243414;28;20025;-68
2023/03/24 09:42:07;;;;;;;22.88;21.60;;;15.70;99.90;;;;;;5228505;28;20526;-69
2023/03/24 09:44:46;;;;;;;17.38;16.40;;;15.50;99.90;;;;;;5228838;28;20033;-69
2023/03/24 09:47:40;;;;;;;22.15;20.95;;;15.80;99.90;;;;;;5228649;28;20400;-68
2023/03/24 09:50:23;;;;;;;19.70;18.67;;;16.00;99.90;;;;;;5237394;28;20115;-70
2023/03/24 09:53:20;;;;;;;18.02;17.00;;;16.10;99.90;;;;;;5218485;28;20463;-69
2023/03/24 09:55:51;;;;;;;24.95;23.58;;;15.40;99.90;;;;;;5240021;28;20112;-69
2023/03/24 09:58:26;;;;;;;27.02;25.52;;;14.60;99.90;;;;;;5249475;28;20137;-68
2023/03/24 10:00:57;;;;;;;25.35;23.98;;;15.60;99.90;;;;;;5238622;28;20021;-68
2023/03/24 10:03:29;;;;;;;20.77;19.60;;;16.20;99.90;;;;;;5240375;28;20042;-68
2023/03/24 10:06:07;;;;;;;21.80;20.42;;;16.50;99.90;;;;;;5228329;28;20021;-68
2023/03/24 10:08:45;;;;;;;19.95;18.77;;;16.30;99.90;;;;;;5228285;28;20029;-68
2023/03/24 10:11:36;;;;;;;22.42;21.13;;;16.70;99.90;;;;;;5228207;28;20028;-66
2023/03/24 10:14:20;;;;;;;20.08;18.98;;;16.40;99.90;;;;;;5228205;28;20521;-68
2023/03/24 10:16:58;;;;;;;21.10;20.00;;;16.20;99.90;;;;;;5228086;28;20032;-68
2023/03/24 10:19:49;;;;;;;19.48;18.38;;;16.50;99.90;;;;;;5227921;28;20056;-69
2023/03/24 10:23:02;;;;;;;20.42;19.23;;;16.50;99.90;;;;;;5227569;28;20607;-69
2023/03/24 10:25:59;;;;;;;22.00;20.70;;;16.00;99.90;;;;;;5124142;29;20031;-68
2023/03/24 10:28:45;;;;;;;21.88;20.60;;;16.70;99.90;;;;;;5107960;29;20055;-69
2023/03/24 10:31:19;;;;;;;22.98;21.67;;;16.80;99.90;;;;;;5211911;28;20033;-69
2023/03/24 10:33:51;;;;;;;22.05;20.85;;;16.30;99.90;;;;;;5227587;28;20183;-69
2023/03/24 10:36:23;;;;;;;20.25;19.15;;;16.10;99.90;;;;;;5227511;28;20028;-70
2023/03/24 10:38:55;;;;;;;22.50;21.30;;;16.30;99.90;;;;;;5226933;28;20040;-69
2023/03/24 10:41:28;;;;;;;17.55;16.55;;;16.60;99.90;;;;;;5244673;28;20028;-69
2023/03/24 10:44:00;;;;;;;21.63;20.42;;;17.10;99.90;;;;;;5247934;28;20095;-70
2023/03/24 10:46:31;;;;;;;20.90;19.80;;;16.90;99.90;;;;;;5244638;28;20475;-67
2023/03/24 10:49:11;;;;;;;18.80;17.80;;;17.50;99.90;;;;;;5230085;28;20021;-70
2023/03/24 10:51:48;;;;;;;20.58;19.48;;;17.10;99.90;;;;;;5208875;28;20469;-67
2023/03/24 10:54:22;;;;;;;19.02;17.92;;;17.30;99.90;;;;;;5227159;28;20025;-67
2023/03/24 10:56:59;;;;;;;20.40;19.20;;;17.20;99.90;;;;;;5227054;28;20033;-66
2023/03/24 10:59:54;;;;;;;18.42;17.20;;;17.10;99.90;;;;;;5227053;28;20033;-69
2023/03/24 11:02:32;;;;;;;21.98;20.77;;;17.30;99.90;;;;;;5227055;28;20082;-68
2023/03/24 11:05:17;;;;;;;17.95;16.95;;;17.00;99.90;;;;;;5227275;28;20557;-68
2023/03/24 11:07:50;;;;;;;17.38;16.45;;;17.00;99.90;;;;;;5232284;28;20045;-69
2023/03/24 11:10:26;;;;;;;18.02;17.02;;;17.30;99.90;;;;;;5218411;28;20488;-70
2023/03/24 11:12:56;;;;;;;19.08;17.98;;;17.60;99.90;;;;;;5224006;28;20407;-68
2023/03/24 11:15:29;;;;;;;22.02;20.77;;;17.40;99.90;;;;;;5227996;28;20025;-71
2023/03/24 11:18:06;;;;;;;19.83;18.73;;;16.90;99.90;;;;;;5228585;28;20104;-68
2023/03/24 11:20:59;;;;;;;17.70;16.55;;;17.20;99.90;;;;;;5232326;28;20380;-68
2023/03/24 11:23:49;;;;;;;20.75;19.58;;;17.20;99.90;;;;;;5226371;28;20033;-69
2023/03/24 11:26:27;;;;;;;18.42;17.40;;;17.20;99.90;;;;;;5226477;28;20044;-65
2023/03/24 11:29:06;;;;;;;22.42;21.13;;;17.60;99.90;;;;;;5226388;28;20053;-70
2023/03/24 11:31:38;;;;;;;23.10;21.90;;;16.10;99.90;;;;;;5226569;28;20067;-69
2023/03/24 11:34:23;;;;;;;24.70;23.40;;;17.00;99.90;;;;;;5226501;28;20107;-68
2023/03/24 11:36:58;;;;;;;22.55;21.35;;;17.60;99.90;;;;;;5226409;28;20104;-70
2023/03/24 11:39:31;;;;;;;20.13;19.02;;;17.60;99.90;;;;;;5226410;28;20028;-70
2023/03/24 11:42:05;;;;;;;21.00;19.90;;;17.40;99.90;;;;;;5226344;28;20039;-65
2023/03/24 11:44:49;;;;;;;19.90;18.80;;;17.80;99.90;;;;;;5226315;28;20048;-67
2023/03/24 11:47:29;;;;;;;21.88;20.67;;;17.90;99.90;;;;;;5226445;28;20021;-66
2023/03/24 11:50:00;;;;;;;20.40;19.27;;;17.40;99.90;;;;;;5226536;28;20040;-66
2023/03/24 11:52:37;;;;;;;18.63;17.30;;;17.70;99.90;;;;;;5246890;28;20024;-67
2023/03/24 11:55:30;;;;;;;17.55;16.58;;;17.80;99.90;;;;;;5247121;28;20028;-68
2023/03/24 11:58:09;;;;;;;18.98;17.92;;;17.80;99.90;;;;;;5247005;28;20046;-67
2023/03/24 12:01:03;;;;;;;10.82;10.23;;;17.90;99.90;;;;;;5246860;28;20037;-67
2023/03/24 12:04:06;;;;;;;17.70;16.60;;;18.40;99.90;;;;;;5245350;28;20452;-66
2023/03/24 12:07:13;;;;;;;18.17;17.17;;;17.90;99.90;;;;;;5232802;28;20033;-70
2023/03/24 12:09:53;;;;;;;17.58;16.58;;;17.60;99.90;;;;;;5226011;28;20036;-68
2023/03/24 12:12:58;;;;;;;20.13;18.92;;;17.60;99.90;;;;;;5238134;28;20022;-70
2023/03/24 12:15:33;;;;;;;19.23;18.13;;;17.20;99.90;;;;;;5220475;28;20041;-68
2023/03/24 12:18:50;;;;;;;20.50;19.40;;;17.60;99.90;;;;;;5226134;28;20032;-68
2023/03/24 12:21:33;;;;;;;19.77;18.75;;;17.60;99.90;;;;;;5205608;28;20037;-68
2023/03/24 12:24:41;;;;;;;21.42;20.23;;;17.90;99.90;;;;;;5211499;28;20040;-67
2023/03/24 12:27:26;;;;;;;11.20;10.50;;;17.60;99.90;;;;;;5208150;28;20052;-65
2023/03/24 12:30:24;;;;;;;20.35;19.25;;;17.90;99.90;;;;;;5246997;28;20024;-68
2023/03/24 12:33:36;;;;;;;16.35;15.38;;;17.90;99.90;;;;;;5202287;28;20048;-68
2023/03/24 12:36:22;;;;;;;14.95;14.13;;;17.40;99.90;;;;;;5210230;28;20534;-68
2023/03/24 12:39:03;;;;;;;15.85;14.88;;;17.40;99.90;;;;;;5208170;28;20112;-70
2023/03/24 12:42:05;;;;;;;20.48;19.38;;;17.10;99.90;;;;;;5226255;28;20033;-70
2023/03/24 12:45:12;;;;;;;21.13;19.92;;;17.60;99.90;;;;;;5225683;28;20037;-68
2023/03/24 12:48:01;;;;;;;19.10;18.05;;;17.10;99.90;;;;;;5225731;28;20051;-70
2023/03/24 12:51:05;;;;;;;17.97;17.07;;;17.20;99.90;;;;;;5231043;28;20021;-70
2023/03/24 12:54:04;;;;;;;20.02;18.92;;;16.80;99.90;;;;;;5236905;28;20033;-68
2023/03/24 12:56:55;;;;;;;20.55;19.30;;;17.60;99.90;;;;;;5225517;28;20059;-71
2023/03/24 12:59:35;;;;;;;17.75;16.65;;;17.10;99.90;;;;;;5265496;28;20025;-71
2023/03/24 13:02:25;;;;;;;18.48;17.48;;;17.20;99.90;;;;;;5255804;28;20021;-69
2023/03/24 13:04:59;;;;;;;;;;;17.00;99.90;;;;;;5250520;28;20043;-70
2023/03/24 13:07:42;;;;;;;18.80;17.80;;;16.90;99.90;;;;;;5249913;28;19908;-71
2023/03/24 13:10:19;;;;;;;23.25;21.95;;;17.30;99.90;;;;;;5238820;28;20033;-69
2023/03/24 13:13:25;;;;;;;27.10;25.63;;;17.10;99.90;;;;;;5238642;28;20094;-68
2023/03/24 13:16:04;;;;;;;19.08;18.08;;;17.60;99.90;;;;;;5196686;28;20036;-71
2023/03/24 13:18:51;;;;;;;21.35;20.25;;;17.40;99.90;;;;;;5234580;28;20029;-68
2023/03/24 13:21:28;;;;;;;17.55;16.50;;;17.30;99.90;;;;;;5228860;28;20029;-67
2023/03/24 13:24:06;;;;;;;16.17;14.98;;;17.30;99.90;;;;;;5228916;28;20127;-67